createdAt,value
2023-03-16T00:00:25.483Z,1008.96
2023-03-16T00:01:25.171Z,1009.03
2023-03-16T00:02:25.272Z,1008.98
2023-03-16T00:03:25.183Z,1008.94
2023-03-16T00:04:25.179Z,1009.02
2023-03-16T00:05:25.189Z,1009.00
2023-03-16T00:06:25.835Z,1008.95
2023-03-16T00:07:25.110Z,1009.00
2023-03-16T00:08:25.119Z,1009.00
2023-03-16T00:09:25.101Z,1008.92
2023-03-16T00:10:26.376Z,1008.98
2023-03-16T00:11:25.108Z,1009.01
2023-03-16T00:12:25.063Z,1009.03
2023-03-16T00:13:25.111Z,1009.00
2023-03-16T00:14:25.056Z,1009.04
2023-03-16T00:15:25.079Z,1009.03
2023-03-16T00:16:25.115Z,1009.01
2023-03-16T00:17:25.006Z,1008.99
2023-03-16T00:18:25.007Z,1008.99
2023-03-16T00:19:25.995Z,1009.02
2023-03-16T00:20:25.456Z,1008.98
2023-03-16T00:21:24.998Z,1009.04
2023-03-16T00:22:24.953Z,1009.02
2023-03-16T00:23:25.936Z,1009.04
2023-03-16T00:24:24.935Z,1009.06
2023-03-16T00:25:24.933Z,1009.01
2023-03-16T00:26:24.945Z,1009.07
2023-03-16T00:27:24.913Z,1009.05
2023-03-16T00:28:24.908Z,1009.07
2023-03-16T00:29:24.867Z,1009.07
2023-03-16T00:30:24.931Z,1009.04
2023-03-16T00:31:25.952Z,1009.05
2023-03-16T00:32:24.901Z,1009.01
2023-03-16T00:33:24.871Z,1009.05
2023-03-16T00:34:24.845Z,1009.03
2023-03-16T00:35:24.837Z,1009.06
2023-03-16T00:36:24.786Z,1009.08
2023-03-16T00:37:24.878Z,1009.10
2023-03-16T00:38:24.793Z,1009.07
2023-03-16T00:39:25.805Z,1009.14
2023-03-16T00:40:24.854Z,1009.06
2023-03-16T00:41:24.750Z,1009.08
2023-03-16T00:42:24.734Z,1009.12
2023-03-16T00:43:25.714Z,1009.13
2023-03-16T00:44:25.716Z,1009.05
2023-03-16T00:45:24.741Z,1009.16
2023-03-16T00:46:24.766Z,1009.26
2023-03-16T00:47:24.664Z,1009.21
2023-03-16T00:48:25.674Z,1009.21
2023-03-16T00:49:25.666Z,1009.23
2023-03-16T00:50:24.729Z,1009.26
2023-03-16T00:51:25.627Z,1009.20
2023-03-16T00:52:24.662Z,1009.17
2023-03-16T00:53:25.638Z,1009.22
2023-03-16T00:54:24.627Z,1009.22
2023-03-16T00:55:24.579Z,1009.20
2023-03-16T00:56:25.594Z,1009.22
2023-03-16T00:57:24.641Z,1009.22
2023-03-16T00:58:24.599Z,1009.21
2023-03-16T00:59:24.668Z,1009.19
2023-03-16T01:00:24.568Z,1009.24
2023-03-16T01:01:24.615Z,1009.24
2023-03-16T01:02:25.541Z,1009.27
2023-03-16T01:03:24.555Z,1009.27
2023-03-16T01:04:24.501Z,1009.28
2023-03-16T01:05:24.526Z,1009.21
2023-03-16T01:06:24.478Z,1009.29
2023-03-16T01:07:24.474Z,1009.21
2023-03-16T01:08:24.460Z,1009.23
2023-03-16T01:09:24.480Z,1009.21
2023-03-16T01:10:24.434Z,1009.21
2023-03-16T01:11:25.438Z,1009.17
2023-03-16T01:12:25.408Z,1009.18
2023-03-16T01:13:25.397Z,1009.17
2023-03-16T01:14:24.403Z,1009.24
2023-03-16T01:15:24.398Z,1009.19
2023-03-16T01:16:24.450Z,1009.19
2023-03-16T01:17:25.354Z,1009.16
2023-03-16T01:18:24.369Z,1009.23
2023-03-16T01:19:24.347Z,1009.13
2023-03-16T01:20:25.524Z,1009.09
2023-03-16T01:21:24.337Z,1009.15
2023-03-16T01:22:24.303Z,1009.16
2023-03-16T01:23:24.310Z,1009.18
2023-03-16T01:24:24.305Z,1009.19
2023-03-16T01:25:25.272Z,1009.17
2023-03-16T01:26:24.278Z,1009.20
2023-03-16T01:27:25.315Z,1009.10
2023-03-16T01:28:24.246Z,1009.09
2023-03-16T01:29:25.214Z,1009.11
2023-03-16T01:30:25.684Z,1009.19
2023-03-16T01:31:25.232Z,1009.14
2023-03-16T01:32:24.249Z,1009.20
2023-03-16T01:33:24.244Z,1009.18
2023-03-16T01:34:25.159Z,1009.19
2023-03-16T01:35:24.198Z,1009.21
2023-03-16T01:36:24.182Z,1009.16
2023-03-16T01:37:24.143Z,1009.19
2023-03-16T01:38:24.141Z,1009.18
2023-03-16T01:39:24.159Z,1009.16
2023-03-16T01:40:24.124Z,1009.13
2023-03-16T01:41:24.113Z,1009.08
2023-03-16T01:42:24.088Z,1009.11
2023-03-16T01:43:24.097Z,1009.13
2023-03-16T01:44:24.051Z,1009.15
2023-03-16T01:45:24.071Z,1009.07
2023-03-16T01:46:25.161Z,1009.13
2023-03-16T01:47:24.103Z,1009.12
2023-03-16T01:48:24.970Z,1009.15
2023-03-16T01:49:24.011Z,1009.14
2023-03-16T01:50:24.001Z,1009.13
2023-03-16T01:51:25.038Z,1009.05
2023-03-16T01:52:23.977Z,1009.16
2023-03-16T01:53:23.985Z,1009.13
2023-03-16T01:54:23.963Z,1009.12
2023-03-16T01:55:23.966Z,1009.11
2023-03-16T01:56:23.944Z,1009.07
2023-03-16T01:57:23.943Z,1009.12
2023-03-16T01:58:23.904Z,1009.12
2023-03-16T01:59:23.919Z,1009.13
2023-03-16T02:00:23.912Z,1009.10
2023-03-16T02:01:23.934Z,1009.04
2023-03-16T02:02:23.909Z,1009.08
2023-03-16T02:03:23.849Z,1009.02
2023-03-16T02:04:23.839Z,1009.05
2023-03-16T02:05:23.831Z,1009.00
2023-03-16T02:06:23.830Z,1008.95
2023-03-16T02:07:23.820Z,1009.02
2023-03-16T02:08:23.830Z,1009.03
2023-03-16T02:09:23.782Z,1009.07
2023-03-16T02:10:24.781Z,1009.00
2023-03-16T02:11:23.795Z,1008.98
2023-03-16T02:12:23.796Z,1009.01
2023-03-16T02:13:23.798Z,1008.94
2023-03-16T02:14:23.763Z,1008.97
2023-03-16T02:15:23.724Z,1008.94
2023-03-16T02:16:24.705Z,1008.96
2023-03-16T02:17:24.762Z,1008.92
2023-03-16T02:18:23.706Z,1008.95
2023-03-16T02:19:23.696Z,1008.93
2023-03-16T02:20:23.724Z,1008.94
2023-03-16T02:21:24.646Z,1008.97
2023-03-16T02:22:23.658Z,1008.90
2023-03-16T02:23:23.640Z,1008.95
2023-03-16T02:24:23.666Z,1008.96
2023-03-16T02:25:23.646Z,1008.92
2023-03-16T02:26:23.594Z,1008.96
2023-03-16T02:27:23.627Z,1008.93
2023-03-16T02:28:24.591Z,1008.98
2023-03-16T02:29:23.614Z,1008.91
2023-03-16T02:30:23.554Z,1008.94
2023-03-16T02:31:23.570Z,1009.00
2023-03-16T02:32:23.660Z,1009.00
2023-03-16T02:33:23.519Z,1008.96
2023-03-16T02:34:23.552Z,1009.00
2023-03-16T02:35:23.605Z,1008.98
2023-03-16T02:36:24.496Z,1008.94
2023-03-16T02:37:23.498Z,1008.99
2023-03-16T02:38:23.478Z,1009.03
2023-03-16T02:39:23.524Z,1009.00
2023-03-16T02:40:23.475Z,1009.04
2023-03-16T02:41:23.432Z,1009.05
2023-03-16T02:42:23.433Z,1009.01
2023-03-16T02:43:23.472Z,1009.03
2023-03-16T02:44:23.418Z,1009.05
2023-03-16T02:45:23.426Z,1008.99
2023-03-16T02:46:23.514Z,1009.03
2023-03-16T02:47:24.414Z,1009.02
2023-03-16T02:48:24.376Z,1009.03
2023-03-16T02:49:23.349Z,1009.01
2023-03-16T02:50:23.388Z,1009.02
2023-03-16T02:51:23.329Z,1009.07
2023-03-16T02:52:24.332Z,1009.06
2023-03-16T02:53:23.363Z,1009.05
2023-03-16T02:54:23.315Z,1009.09
2023-03-16T02:55:23.289Z,1009.14
2023-03-16T02:56:23.266Z,1009.06
2023-03-16T02:57:23.327Z,1009.10
2023-03-16T02:58:23.248Z,1009.10
2023-03-16T02:59:23.251Z,1009.06
2023-03-16T03:00:23.261Z,1009.11
2023-03-16T03:01:23.241Z,1009.11
2023-03-16T03:02:23.203Z,1009.05
2023-03-16T03:03:23.240Z,1009.07
2023-03-16T03:04:23.221Z,1009.09
2023-03-16T03:05:23.225Z,1009.02
2023-03-16T03:06:24.174Z,1009.09
2023-03-16T03:07:24.152Z,1009.07
2023-03-16T03:08:24.132Z,1009.13
2023-03-16T03:09:23.141Z,1009.11
2023-03-16T03:10:24.145Z,1009.10
2023-03-16T03:11:23.120Z,1009.08
2023-03-16T03:12:23.125Z,1009.04
2023-03-16T03:13:23.086Z,1009.12
2023-03-16T03:14:23.075Z,1009.11
2023-03-16T03:15:23.081Z,1009.08
2023-03-16T03:16:23.135Z,1009.10
2023-03-16T03:17:23.084Z,1009.19
2023-03-16T03:18:23.061Z,1009.14
2023-03-16T03:19:23.086Z,1009.13
2023-03-16T03:20:24.007Z,1009.14
2023-03-16T03:21:23.032Z,1009.25
2023-03-16T03:22:23.027Z,1009.20
2023-03-16T03:23:22.986Z,1009.20
2023-03-16T03:24:23.958Z,1009.29
2023-03-16T03:25:23.966Z,1009.27
2023-03-16T03:26:23.973Z,1009.23
2023-03-16T03:27:23.012Z,1009.24
2023-03-16T03:28:22.960Z,1009.24
2023-03-16T03:29:22.935Z,1009.33
2023-03-16T03:30:22.900Z,1009.27
2023-03-16T03:31:23.039Z,1009.25
2023-03-16T03:32:23.919Z,1009.25
2023-03-16T03:33:22.935Z,1009.28
2023-03-16T03:34:22.865Z,1009.22
2023-03-16T03:35:22.893Z,1009.20
2023-03-16T03:36:22.988Z,1009.22
2023-03-16T03:37:22.834Z,1009.23
2023-03-16T03:38:22.832Z,1009.23
2023-03-16T03:39:22.823Z,1009.17
2023-03-16T03:40:22.828Z,1009.20
2023-03-16T03:41:22.802Z,1009.20
2023-03-16T03:42:22.838Z,1009.22
2023-03-16T03:43:22.757Z,1009.23
2023-03-16T03:44:23.759Z,1009.28
2023-03-16T03:45:22.741Z,1009.28
2023-03-16T03:46:22.898Z,1009.21
2023-03-16T03:47:22.821Z,1009.24
2023-03-16T03:48:22.742Z,1009.20
2023-03-16T03:49:22.718Z,1009.27
2023-03-16T03:50:22.678Z,1009.23
2023-03-16T03:51:23.653Z,1009.23
2023-03-16T03:52:23.658Z,1009.24
2023-03-16T03:53:22.701Z,1009.22
2023-03-16T03:54:22.700Z,1009.25
2023-03-16T03:55:22.694Z,1009.20
2023-03-16T03:56:22.627Z,1009.19
2023-03-16T03:57:22.628Z,1009.14
2023-03-16T03:58:22.644Z,1009.17
2023-03-16T03:59:22.579Z,1009.15
2023-03-16T04:00:22.581Z,1009.16
2023-03-16T04:01:22.592Z,1009.14
2023-03-16T04:02:22.693Z,1009.14
2023-03-16T04:03:23.654Z,1009.15
2023-03-16T04:04:23.564Z,1009.12
2023-03-16T04:05:22.541Z,1009.16
2023-03-16T04:06:22.514Z,1009.14
2023-03-16T04:07:22.487Z,1009.16
2023-03-16T04:08:22.537Z,1009.10
2023-03-16T04:09:30.081Z,1009.09
2023-03-16T04:10:22.494Z,1009.12
2023-03-16T04:11:22.460Z,1009.10
2023-03-16T04:12:22.440Z,1009.09
2023-03-16T04:13:22.459Z,1009.08
2023-03-16T04:14:22.430Z,1009.10
2023-03-16T04:15:22.417Z,1009.14
2023-03-16T04:16:22.437Z,1009.10
2023-03-16T04:17:22.400Z,1009.12
2023-03-16T04:18:22.392Z,1009.09
2023-03-16T04:19:22.377Z,1009.17
2023-03-16T04:20:22.408Z,1009.07
2023-03-16T04:21:22.377Z,1009.12
2023-03-16T04:22:22.351Z,1009.14
2023-03-16T04:23:22.331Z,1009.10
2023-03-16T04:24:22.376Z,1009.12
2023-03-16T04:25:22.309Z,1009.06
2023-03-16T04:26:23.303Z,1009.12
2023-03-16T04:27:23.340Z,1009.08
2023-03-16T04:28:22.266Z,1009.11
2023-03-16T04:29:23.259Z,1009.07
2023-03-16T04:30:22.297Z,1009.08
2023-03-16T04:31:23.357Z,1009.07
2023-03-16T04:32:23.245Z,1009.08
2023-03-16T04:33:22.215Z,1009.09
2023-03-16T04:34:22.187Z,1009.11
2023-03-16T04:35:22.240Z,1009.18
2023-03-16T04:36:22.222Z,1009.07
2023-03-16T04:37:23.212Z,1009.16
2023-03-16T04:38:22.179Z,1009.21
2023-03-16T04:39:22.191Z,1009.18
2023-03-16T04:40:22.165Z,1009.15
2023-03-16T04:41:23.139Z,1009.12
2023-03-16T04:42:22.136Z,1009.12
2023-03-16T04:43:22.117Z,1009.12
2023-03-16T04:44:22.100Z,1009.05
2023-03-16T04:45:23.096Z,1009.12
2023-03-16T04:46:22.120Z,1009.03
2023-03-16T04:47:22.080Z,1009.05
2023-03-16T04:48:22.088Z,1009.08
2023-03-16T04:49:22.034Z,1009.14
2023-03-16T04:50:22.056Z,1009.10
2023-03-16T04:51:23.015Z,1009.08
2023-03-16T04:52:21.999Z,1009.05
2023-03-16T04:53:22.041Z,1009.08
2023-03-16T04:54:21.995Z,1009.12
2023-03-16T04:55:21.964Z,1009.11
2023-03-16T04:56:21.993Z,1009.16
2023-03-16T04:57:21.944Z,1009.08
2023-03-16T04:58:21.993Z,1009.11
2023-03-16T04:59:22.969Z,1009.11
2023-03-16T05:00:21.925Z,1009.11
2023-03-16T05:01:21.926Z,1009.13
2023-03-16T05:02:21.907Z,1009.17
2023-03-16T05:03:21.875Z,1009.15
2023-03-16T05:04:22.970Z,1009.17
2023-03-16T05:05:21.930Z,1009.16
2023-03-16T05:06:21.866Z,1009.16
2023-03-16T05:07:21.842Z,1009.13
2023-03-16T05:08:21.856Z,1009.15
2023-03-16T05:09:21.833Z,1009.15
2023-03-16T05:10:21.857Z,1009.12
2023-03-16T05:11:21.832Z,1009.10
2023-03-16T05:12:21.817Z,1009.09
2023-03-16T05:13:21.818Z,1009.16
2023-03-16T05:14:21.794Z,1009.20
2023-03-16T05:15:21.780Z,1009.15
2023-03-16T05:16:22.834Z,1009.15
2023-03-16T05:17:21.719Z,1009.18
2023-03-16T05:18:22.752Z,1009.22
2023-03-16T05:19:21.724Z,1009.23
2023-03-16T05:20:21.741Z,1009.31
2023-03-16T05:21:21.753Z,1009.25
2023-03-16T05:22:21.694Z,1009.21
2023-03-16T05:23:21.693Z,1009.26
2023-03-16T05:24:21.677Z,1009.28
2023-03-16T05:25:21.661Z,1009.29
2023-03-16T05:26:21.640Z,1009.34
2023-03-16T05:27:21.677Z,1009.29
2023-03-16T05:28:21.600Z,1009.32
2023-03-16T05:29:21.620Z,1009.29
2023-03-16T05:30:21.627Z,1009.29
2023-03-16T05:31:21.641Z,1009.27
2023-03-16T05:32:21.589Z,1009.31
2023-03-16T05:33:21.619Z,1009.28
2023-03-16T05:34:21.562Z,1009.28
2023-03-16T05:35:23.708Z,1009.35
2023-03-16T05:36:21.543Z,1009.31
2023-03-16T05:37:21.545Z,1009.31
2023-03-16T05:38:21.523Z,1009.27
2023-03-16T05:39:21.533Z,1009.33
2023-03-16T05:40:21.479Z,1009.29
2023-03-16T05:41:21.503Z,1009.27
2023-03-16T05:42:21.500Z,1009.32
2023-03-16T05:43:21.472Z,1009.28
2023-03-16T05:44:22.457Z,1009.27
2023-03-16T05:45:21.459Z,1009.29
2023-03-16T05:46:21.446Z,1009.31
2023-03-16T05:47:22.456Z,1009.31
2023-03-16T05:48:21.399Z,1009.38
2023-03-16T05:49:21.440Z,1009.40
2023-03-16T05:50:22.384Z,1009.41
2023-03-16T05:51:22.403Z,1009.40
2023-03-16T05:52:21.355Z,1009.34
2023-03-16T05:53:21.344Z,1009.37
2023-03-16T05:54:22.364Z,1009.42
2023-03-16T05:55:21.336Z,1009.35
2023-03-16T05:56:22.336Z,1009.35
2023-03-16T05:57:21.313Z,1009.38
2023-03-16T05:58:21.299Z,1009.37
2023-03-16T05:59:21.282Z,1009.39
2023-03-16T06:00:21.336Z,1009.41
2023-03-16T06:01:21.299Z,1009.47
2023-03-16T06:02:21.344Z,1009.50
2023-03-16T06:03:21.277Z,1009.46
2023-03-16T06:04:21.248Z,1009.50
2023-03-16T06:05:21.244Z,1009.45
2023-03-16T06:06:21.193Z,1009.42
2023-03-16T06:07:21.220Z,1009.48
2023-03-16T06:08:21.190Z,1009.54
2023-03-16T06:09:21.213Z,1009.49
2023-03-16T06:10:21.197Z,1009.56
2023-03-16T06:11:21.137Z,1009.57
2023-03-16T06:12:21.146Z,1009.52
2023-03-16T06:13:21.150Z,1009.52
2023-03-16T06:14:21.165Z,1009.55
2023-03-16T06:15:21.124Z,1009.56
2023-03-16T06:16:21.208Z,1009.53
2023-03-16T06:17:21.116Z,1009.57
2023-03-16T06:18:21.089Z,1009.50
2023-03-16T06:19:21.053Z,1009.52
2023-03-16T06:20:21.107Z,1009.54
2023-03-16T06:21:22.038Z,1009.55
2023-03-16T06:22:21.138Z,1009.57
2023-03-16T06:23:21.021Z,1009.63
2023-03-16T06:24:21.003Z,1009.63
2023-03-16T06:25:21.998Z,1009.54
2023-03-16T06:26:21.030Z,1009.63
2023-03-16T06:27:20.981Z,1009.60
2023-03-16T06:28:20.950Z,1009.58
2023-03-16T06:29:20.974Z,1009.66
2023-03-16T06:30:20.954Z,1009.61
2023-03-16T06:31:21.021Z,1009.65
2023-03-16T06:32:20.947Z,1009.61
2023-03-16T06:33:21.931Z,1009.64
2023-03-16T06:34:20.933Z,1009.60
2023-03-16T06:35:20.897Z,1009.59
2023-03-16T06:36:20.890Z,1009.58
2023-03-16T06:37:20.872Z,1009.56
2023-03-16T06:38:20.867Z,1009.57
2023-03-16T06:39:20.884Z,1009.56
2023-03-16T06:40:20.840Z,1009.58
2023-03-16T06:41:20.837Z,1009.56
2023-03-16T06:42:20.837Z,1009.63
2023-03-16T06:43:20.828Z,1009.61
2023-03-16T06:44:20.787Z,1009.59
2023-03-16T06:45:20.800Z,1009.58
2023-03-16T06:46:20.809Z,1009.62
2023-03-16T06:47:20.767Z,1009.56
2023-03-16T06:48:20.764Z,1009.58
2023-03-16T06:49:20.738Z,1009.63
2023-03-16T06:50:20.730Z,1009.64
2023-03-16T06:51:20.743Z,1009.65
2023-03-16T06:52:21.745Z,1009.57
2023-03-16T06:53:20.686Z,1009.70
2023-03-16T06:54:20.677Z,1009.71
2023-03-16T06:55:20.700Z,1009.69
2023-03-16T06:56:20.647Z,1009.61
2023-03-16T06:57:20.677Z,1009.67
2023-03-16T06:58:20.650Z,1009.60
2023-03-16T06:59:20.627Z,1009.70
2023-03-16T07:00:20.652Z,1009.62
2023-03-16T07:01:20.649Z,1009.60
2023-03-16T07:02:20.587Z,1009.59
2023-03-16T07:03:21.632Z,1009.59
2023-03-16T07:04:20.670Z,1009.53
2023-03-16T07:05:20.589Z,1009.55
2023-03-16T07:06:21.633Z,1009.57
2023-03-16T07:07:20.533Z,1009.53
2023-03-16T07:08:21.535Z,1009.55
2023-03-16T07:09:21.525Z,1009.44
2023-03-16T07:10:20.532Z,1009.45
2023-03-16T07:11:20.528Z,1009.47
2023-03-16T07:12:21.474Z,1009.50
2023-03-16T07:13:21.480Z,1009.53
2023-03-16T07:14:21.456Z,1009.53
2023-03-16T07:15:20.481Z,1009.50
2023-03-16T07:16:21.485Z,1009.53
2023-03-16T07:17:21.429Z,1009.58
2023-03-16T07:18:20.413Z,1009.60
2023-03-16T07:19:20.415Z,1009.63
2023-03-16T07:20:22.236Z,1009.70
2023-03-16T07:21:20.398Z,1009.58
2023-03-16T07:22:20.380Z,1009.58
2023-03-16T07:23:20.374Z,1009.58
2023-03-16T07:24:20.340Z,1009.54
2023-03-16T07:25:20.340Z,1009.55
2023-03-16T07:26:20.350Z,1009.58
2023-03-16T07:27:21.318Z,1009.57
2023-03-16T07:28:20.334Z,1009.63
2023-03-16T07:29:21.298Z,1009.59
2023-03-16T07:30:20.294Z,1009.55
2023-03-16T07:31:20.444Z,1009.55
2023-03-16T07:32:20.289Z,1009.54
2023-03-16T07:33:20.281Z,1009.52
2023-03-16T07:34:20.261Z,1009.56
2023-03-16T07:35:20.250Z,1009.57
2023-03-16T07:36:21.327Z,1009.57
2023-03-16T07:37:25.257Z,1009.55
2023-03-16T07:38:21.200Z,1009.58
2023-03-16T07:39:20.183Z,1009.59
2023-03-16T07:40:21.165Z,1009.59
2023-03-16T07:41:20.204Z,1009.54
2023-03-16T07:42:20.205Z,1009.54
2023-03-16T07:43:20.163Z,1009.60
2023-03-16T07:44:20.168Z,1009.53
2023-03-16T07:45:20.147Z,1009.57
2023-03-16T07:46:20.183Z,1009.56
2023-03-16T07:47:20.153Z,1009.57
2023-03-16T07:48:20.074Z,1009.61
2023-03-16T07:49:20.166Z,1009.58
2023-03-16T07:50:20.069Z,1009.55
2023-03-16T07:51:21.069Z,1009.60
2023-03-16T07:52:20.057Z,1009.54
2023-03-16T07:53:20.064Z,1009.57
2023-03-16T07:54:20.012Z,1009.54
2023-03-16T07:55:20.067Z,1009.57
2023-03-16T07:56:20.007Z,1009.66
2023-03-16T07:57:19.997Z,1009.60
2023-03-16T07:58:20.020Z,1009.59
2023-03-16T07:59:21.053Z,1009.63
2023-03-16T08:00:20.052Z,1009.60
2023-03-16T08:01:19.971Z,1009.61
2023-03-16T08:02:20.028Z,1009.67
2023-03-16T08:03:19.972Z,1009.66
2023-03-16T08:04:19.918Z,1009.70
2023-03-16T08:05:19.925Z,1009.71
2023-03-16T08:06:19.962Z,1009.75
2023-03-16T08:07:19.943Z,1009.65
2023-03-16T08:08:19.873Z,1009.65
2023-03-16T08:09:19.904Z,1009.66
2023-03-16T08:10:19.885Z,1009.65
2023-03-16T08:11:19.830Z,1009.61
2023-03-16T08:12:20.823Z,1009.65
2023-03-16T08:13:20.827Z,1009.70
2023-03-16T08:14:19.836Z,1009.73
2023-03-16T08:15:19.806Z,1009.77
2023-03-16T08:16:22.021Z,1009.71
2023-03-16T08:17:19.849Z,1009.72
2023-03-16T08:18:19.770Z,1009.70
2023-03-16T08:19:19.787Z,1009.74
2023-03-16T08:20:20.766Z,1009.79
2023-03-16T08:21:19.774Z,1009.73
2023-03-16T08:22:19.724Z,1009.68
2023-03-16T08:23:19.763Z,1009.72
2023-03-16T08:24:19.739Z,1009.79
2023-03-16T08:25:20.757Z,1009.75
2023-03-16T08:26:19.673Z,1009.82
2023-03-16T08:27:19.697Z,1009.78
2023-03-16T08:28:19.656Z,1009.77
2023-03-16T08:29:20.652Z,1009.85
2023-03-16T08:30:19.682Z,1009.82
2023-03-16T08:31:19.734Z,1009.86
2023-03-16T08:32:19.612Z,1009.77
2023-03-16T08:33:22.581Z,1009.77
2023-03-16T08:34:19.597Z,1009.74
2023-03-16T08:35:19.594Z,1009.81
2023-03-16T08:36:19.600Z,1009.80
2023-03-16T08:37:21.435Z,1009.87
2023-03-16T08:38:19.587Z,1009.82
2023-03-16T08:39:19.571Z,1009.91
2023-03-16T08:40:19.603Z,1009.93
2023-03-16T08:41:19.527Z,1009.95
2023-03-16T08:42:20.495Z,1009.93
2023-03-16T08:43:19.539Z,1009.90
2023-03-16T08:44:19.493Z,1009.95
2023-03-16T08:45:19.499Z,1009.91
2023-03-16T08:46:19.505Z,1009.93
2023-03-16T08:47:19.459Z,1009.90
2023-03-16T08:48:19.445Z,1009.86
2023-03-16T08:49:19.421Z,1009.88
2023-03-16T08:50:19.431Z,1009.86
2023-03-16T08:51:19.433Z,1009.89
2023-03-16T08:52:19.380Z,1009.84
2023-03-16T08:53:19.388Z,1009.90
2023-03-16T08:54:19.385Z,1009.89
2023-03-16T08:55:19.392Z,1009.90
2023-03-16T08:56:19.358Z,1009.82
2023-03-16T08:57:19.379Z,1009.94
2023-03-16T08:58:19.323Z,1009.91
2023-03-16T08:59:29.054Z,1009.89
2023-03-16T09:00:20.331Z,1009.90
2023-03-16T09:01:20.425Z,1009.87
2023-03-16T09:02:19.305Z,1009.87
2023-03-16T09:03:19.277Z,1009.93
2023-03-16T09:04:19.320Z,1009.92
2023-03-16T09:05:19.260Z,1009.89
2023-03-16T09:06:19.245Z,1009.86
2023-03-16T09:07:19.265Z,1009.89
2023-03-16T09:08:19.238Z,1009.89
2023-03-16T09:09:20.217Z,1009.88
2023-03-16T09:10:19.180Z,1009.87
2023-03-16T09:11:19.191Z,1009.88
2023-03-16T09:12:19.195Z,1009.89
2023-03-16T09:13:20.203Z,1009.90
2023-03-16T09:14:20.144Z,1009.85
2023-03-16T09:15:20.137Z,1009.83
2023-03-16T09:16:20.237Z,1009.81
2023-03-16T09:17:19.114Z,1009.80
2023-03-16T09:18:19.106Z,1009.85
2023-03-16T09:19:20.122Z,1009.79
2023-03-16T09:20:26.505Z,1009.83
2023-03-16T09:21:20.099Z,1009.85
2023-03-16T09:22:19.071Z,1009.80
2023-03-16T09:23:20.050Z,1009.81
2023-03-16T09:24:19.043Z,1009.85
2023-03-16T09:25:19.062Z,1009.83
2023-03-16T09:26:19.013Z,1009.77
2023-03-16T09:27:19.096Z,1009.77
2023-03-16T09:28:21.009Z,1009.79
2023-03-16T09:29:19.017Z,1009.75
2023-03-16T09:30:18.989Z,1009.79
2023-03-16T09:31:20.115Z,1009.72
2023-03-16T09:32:18.958Z,1009.70
2023-03-16T09:33:18.949Z,1009.75
2023-03-16T09:34:18.920Z,1009.84
2023-03-16T09:35:18.945Z,1009.77
2023-03-16T09:36:19.070Z,1009.82
2023-03-16T09:37:18.915Z,1009.83
2023-03-16T09:38:18.881Z,1009.86
2023-03-16T09:39:18.884Z,1009.84
2023-03-16T09:40:18.872Z,1009.91
2023-03-16T09:41:18.903Z,1009.86
2023-03-16T09:42:19.860Z,1009.87
2023-03-16T09:43:18.854Z,1009.88
2023-03-16T09:44:19.849Z,1009.84
2023-03-16T09:45:18.813Z,1009.86
2023-03-16T09:46:19.111Z,1009.80
2023-03-16T09:47:19.892Z,1009.81
2023-03-16T09:48:18.773Z,1009.81
2023-03-16T09:49:18.919Z,1009.83
2023-03-16T09:50:18.846Z,1009.87
2023-03-16T09:51:18.853Z,1009.81
2023-03-16T09:52:18.752Z,1009.75
2023-03-16T09:53:18.876Z,1009.79
2023-03-16T09:54:18.867Z,1009.83
2023-03-16T09:55:18.720Z,1009.83
2023-03-16T09:56:18.701Z,1009.77
2023-03-16T09:57:18.698Z,1009.83
2023-03-16T09:58:18.675Z,1009.79
2023-03-16T09:59:18.659Z,1009.78
2023-03-16T10:00:19.642Z,1009.77
2023-03-16T10:01:18.685Z,1009.76
2023-03-16T10:02:18.629Z,1009.76
2023-03-16T10:03:19.638Z,1009.74
2023-03-16T10:04:19.760Z,1009.75
2023-03-16T10:05:19.612Z,1009.81
2023-03-16T10:06:18.582Z,1009.76
2023-03-16T10:07:18.597Z,1009.82
2023-03-16T10:08:18.553Z,1009.78
2023-03-16T10:09:18.550Z,1009.86
2023-03-16T10:10:18.541Z,1009.81
2023-03-16T10:11:18.536Z,1009.85
2023-03-16T10:12:18.553Z,1009.82
2023-03-16T10:13:18.593Z,1009.82
2023-03-16T10:14:18.532Z,1009.80
2023-03-16T10:15:18.525Z,1009.82
2023-03-16T10:16:18.510Z,1009.79
2023-03-16T10:17:19.440Z,1009.79
2023-03-16T10:18:19.842Z,1009.73
2023-03-16T10:19:18.456Z,1009.81
2023-03-16T10:20:19.441Z,1009.75
2023-03-16T10:21:19.431Z,1009.69
2023-03-16T10:22:18.394Z,1009.71
2023-03-16T10:23:18.399Z,1009.67
2023-03-16T10:24:18.402Z,1009.55
2023-03-16T10:25:18.371Z,1009.63
2023-03-16T10:26:18.357Z,1009.70
2023-03-16T10:27:19.365Z,1009.67
2023-03-16T10:28:18.365Z,1009.56
2023-03-16T10:29:18.373Z,1009.57
2023-03-16T10:30:18.319Z,1009.59
2023-03-16T10:31:18.326Z,1009.58
2023-03-16T10:32:18.306Z,1009.56
2023-03-16T10:33:18.383Z,1009.61
2023-03-16T10:34:19.272Z,1009.57
2023-03-16T10:35:18.267Z,1009.56
2023-03-16T10:36:18.289Z,1009.57
2023-03-16T10:37:18.286Z,1009.61
2023-03-16T10:38:18.225Z,1009.59
2023-03-16T10:39:19.215Z,1009.56
2023-03-16T10:40:19.213Z,1009.57
2023-03-16T10:41:19.233Z,1009.52
2023-03-16T10:42:18.206Z,1009.50
2023-03-16T10:43:18.185Z,1009.56
2023-03-16T10:44:18.173Z,1009.56
2023-03-16T10:45:19.179Z,1009.47
2023-03-16T10:46:18.313Z,1009.50
2023-03-16T10:47:18.215Z,1009.54
2023-03-16T10:48:19.112Z,1009.47
2023-03-16T10:49:18.146Z,1009.44
2023-03-16T10:50:18.112Z,1009.48
2023-03-16T10:51:18.102Z,1009.44
2023-03-16T10:52:18.079Z,1009.40
2023-03-16T10:53:18.091Z,1009.47
2023-03-16T10:54:18.060Z,1009.40
2023-03-16T10:55:18.052Z,1009.42
2023-03-16T10:56:18.044Z,1009.42
2023-03-16T10:57:18.025Z,1009.41
2023-03-16T10:58:18.034Z,1009.38
2023-03-16T10:59:18.035Z,1009.29
2023-03-16T11:00:17.999Z,1009.28
2023-03-16T11:01:18.120Z,1009.31
2023-03-16T11:02:17.987Z,1009.30
2023-03-16T11:03:17.985Z,1009.24
2023-03-16T11:04:18.084Z,1009.26
2023-03-16T11:05:17.986Z,1009.21
2023-03-16T11:06:17.931Z,1009.14
2023-03-16T11:07:17.906Z,1009.18
2023-03-16T11:08:17.940Z,1009.12
2023-03-16T11:09:17.890Z,1009.18
2023-03-16T11:10:17.911Z,1009.14
2023-03-16T11:11:17.912Z,1009.19
2023-03-16T11:12:17.860Z,1009.11
2023-03-16T11:13:17.855Z,1009.12
2023-03-16T11:14:17.857Z,1009.20
2023-03-16T11:15:25.772Z,1009.19
2023-03-16T11:16:18.867Z,1009.22
2023-03-16T11:17:17.978Z,1009.11
2023-03-16T11:18:17.816Z,1009.16
2023-03-16T11:19:17.806Z,1009.11
2023-03-16T11:20:17.967Z,1009.07
2023-03-16T11:21:17.789Z,1009.14
2023-03-16T11:22:17.774Z,1009.09
2023-03-16T11:23:18.753Z,1009.13
2023-03-16T11:24:18.740Z,1009.06
2023-03-16T11:25:17.727Z,1009.11
2023-03-16T11:26:17.735Z,1009.06
2023-03-16T11:27:17.697Z,1009.01
2023-03-16T11:28:17.701Z,1009.04
2023-03-16T11:29:17.746Z,1009.00
2023-03-16T11:30:17.779Z,1009.04
2023-03-16T11:31:17.716Z,1009.07
2023-03-16T11:32:17.636Z,1009.11
2023-03-16T11:33:17.676Z,1009.07
2023-03-16T11:34:17.647Z,1009.00
2023-03-16T11:35:17.621Z,1009.04
2023-03-16T11:36:25.484Z,1009.00
2023-03-16T11:37:17.607Z,1009.00
2023-03-16T11:38:17.580Z,1008.97
2023-03-16T11:39:17.576Z,1009.00
2023-03-16T11:40:18.603Z,1009.02
2023-03-16T11:41:18.538Z,1009.02
2023-03-16T11:42:17.584Z,1009.01
2023-03-16T11:43:17.573Z,1008.97
2023-03-16T11:44:17.507Z,1008.92
2023-03-16T11:45:18.511Z,1008.97
2023-03-16T11:46:17.592Z,1009.00
2023-03-16T11:47:18.487Z,1008.93
2023-03-16T11:48:18.468Z,1008.97
2023-03-16T11:49:17.484Z,1008.89
2023-03-16T11:50:17.525Z,1008.84
2023-03-16T11:51:17.470Z,1008.87
2023-03-16T11:52:17.474Z,1008.86
2023-03-16T11:53:17.429Z,1008.86
2023-03-16T11:54:17.416Z,1008.79
2023-03-16T11:55:18.416Z,1008.74
2023-03-16T11:56:18.399Z,1008.78
2023-03-16T11:57:17.410Z,1008.78
2023-03-16T11:58:17.872Z,1008.73
2023-03-16T11:59:17.390Z,1008.73
2023-03-16T12:00:17.349Z,1008.78
2023-03-16T12:01:17.358Z,1008.73
2023-03-16T12:02:17.473Z,1008.78
2023-03-16T12:03:17.418Z,1008.68
2023-03-16T12:04:18.422Z,1008.67
2023-03-16T12:05:18.308Z,1008.63